sensor_id;sensor_type;location;lat;lon;timestamp;temperature;humidity
70214;DHT22;60138;55.808;37.078;2022-10-22T00:00:51;6.16;74.64
70214;DHT22;60138;55.808;37.078;2022-10-22T00:03:16;6.16;74.70
70214;DHT22;60138;55.808;37.078;2022-10-22T00:05:42;6.20;74.73
70214;DHT22;60138;55.808;37.078;2022-10-22T00:08:07;6.23;74.76
70214;DHT22;60138;55.808;37.078;2022-10-22T00:10:33;6.24;74.78
70214;DHT22;60138;55.808;37.078;2022-10-22T00:12:59;6.27;74.72
70214;DHT22;60138;55.808;37.078;2022-10-22T00:15:25;6.26;74.67
70214;DHT22;60138;55.808;37.078;2022-10-22T00:17:50;6.26;74.70
70214;DHT22;60138;55.808;37.078;2022-10-22T00:20:16;6.27;74.73
70214;DHT22;60138;55.808;37.078;2022-10-22T00:22:41;6.27;74.73
70214;DHT22;60138;55.808;37.078;2022-10-22T00:25:07;6.29;74.62
70214;DHT22;60138;55.808;37.078;2022-10-22T00:27:33;6.30;74.83
70214;DHT22;60138;55.808;37.078;2022-10-22T00:29:59;6.30;74.71
70214;DHT22;60138;55.808;37.078;2022-10-22T00:32:24;6.31;74.75
70214;DHT22;60138;55.808;37.078;2022-10-22T00:34:50;6.35;74.65
70214;DHT22;60138;55.808;37.078;2022-10-22T00:37:15;6.36;74.58
70214;DHT22;60138;55.808;37.078;2022-10-22T00:39:41;6.33;74.58
70214;DHT22;60138;55.808;37.078;2022-10-22T00:42:20;6.30;74.56
70214;DHT22;60138;55.808;37.078;2022-10-22T00:50:35;6.26;74.73
70214;DHT22;60138;55.808;37.078;2022-10-22T00:53:05;6.24;74.60
70214;DHT22;60138;55.808;37.078;2022-10-22T00:55:32;6.24;74.70
70214;DHT22;60138;55.808;37.078;2022-10-22T00:57:59;6.25;74.65
70214;DHT22;60138;55.808;37.078;2022-10-22T01:00:26;6.25;74.67
70214;DHT22;60138;55.808;37.078;2022-10-22T01:02:52;6.22;74.61
70214;DHT22;60138;55.808;37.078;2022-10-22T01:05:18;6.21;74.70
70214;DHT22;60138;55.808;37.078;2022-10-22T01:07:47;6.19;74.60
70214;DHT22;60138;55.808;37.078;2022-10-22T01:13:00;6.15;74.77
70214;DHT22;60138;55.808;37.078;2022-10-22T01:16:05;6.16;74.85
70214;DHT22;60138;55.808;37.078;2022-10-22T01:21:42;6.17;74.86
70214;DHT22;60138;55.808;37.078;2022-10-22T01:27:20;6.15;74.88
70214;DHT22;60138;55.808;37.078;2022-10-22T01:32:25;6.12;74.88
70214;DHT22;60138;55.808;37.078;2022-10-22T01:35:13;6.12;74.90
70214;DHT22;60138;55.808;37.078;2022-10-22T01:37:49;6.15;74.93
70214;DHT22;60138;55.808;37.078;2022-10-22T01:40:18;6.19;74.91
70214;DHT22;60138;55.808;37.078;2022-10-22T01:43:13;6.23;74.96
70214;DHT22;60138;55.808;37.078;2022-10-22T01:45:46;6.27;74.83
70214;DHT22;60138;55.808;37.078;2022-10-22T01:59:43;6.28;74.74
70214;DHT22;60138;55.808;37.078;2022-10-22T02:04:57;6.30;74.73
70214;DHT22;60138;55.808;37.078;2022-10-22T02:07:27;6.31;74.70
70214;DHT22;60138;55.808;37.078;2022-10-22T02:09:55;6.30;74.65
70214;DHT22;60138;55.808;37.078;2022-10-22T02:12:22;6.28;74.69
70214;DHT22;60138;55.808;37.078;2022-10-22T02:14:49;6.30;74.73
70214;DHT22;60138;55.808;37.078;2022-10-22T02:17:18;6.31;74.75
70214;DHT22;60138;55.808;37.078;2022-10-22T02:19:56;6.31;74.75
70214;DHT22;60138;55.808;37.078;2022-10-22T02:22:24;6.31;74.58
70214;DHT22;60138;55.808;37.078;2022-10-22T02:24:50;6.31;74.66
70214;DHT22;60138;55.808;37.078;2022-10-22T02:27:35;6.31;74.57
70214;DHT22;60138;55.808;37.078;2022-10-22T02:30:06;6.28;74.70
70214;DHT22;60138;55.808;37.078;2022-10-22T02:32:40;6.30;74.70
70214;DHT22;60138;55.808;37.078;2022-10-22T02:35:10;6.30;74.67
70214;DHT22;60138;55.808;37.078;2022-10-22T02:37:37;6.33;74.68
70214;DHT22;60138;55.808;37.078;2022-10-22T02:40:04;6.33;74.64
70214;DHT22;60138;55.808;37.078;2022-10-22T02:42:31;6.35;74.58
70214;DHT22;60138;55.808;37.078;2022-10-22T02:44:57;6.34;74.65
70214;DHT22;60138;55.808;37.078;2022-10-22T02:47:23;6.37;74.67
70214;DHT22;60138;55.808;37.078;2022-10-22T02:49:48;6.38;74.67
70214;DHT22;60138;55.808;37.078;2022-10-22T02:52:14;6.37;74.68
70214;DHT22;60138;55.808;37.078;2022-10-22T02:54:40;6.39;74.58
70214;DHT22;60138;55.808;37.078;2022-10-22T02:57:05;6.40;74.56
70214;DHT22;60138;55.808;37.078;2022-10-22T02:59:31;6.41;74.58
70214;DHT22;60138;55.808;37.078;2022-10-22T03:01:56;6.38;74.52
70214;DHT22;60138;55.808;37.078;2022-10-22T03:04:22;6.34;74.58
70214;DHT22;60138;55.808;37.078;2022-10-22T03:06:48;6.34;74.60
70214;DHT22;60138;55.808;37.078;2022-10-22T03:09:14;6.28;74.69
70214;DHT22;60138;55.808;37.078;2022-10-22T03:11:40;6.27;74.73
70214;DHT22;60138;55.808;37.078;2022-10-22T03:14:05;6.26;74.73
70214;DHT22;60138;55.808;37.078;2022-10-22T03:16:31;6.27;74.64
70214;DHT22;60138;55.808;37.078;2022-10-22T03:18:56;6.23;74.64
70214;DHT22;60138;55.808;37.078;2022-10-22T03:21:31;6.21;74.69
70214;DHT22;60138;55.808;37.078;2022-10-22T03:23:59;6.22;74.73
70214;DHT22;60138;55.808;37.078;2022-10-22T03:26:25;6.22;74.73
70214;DHT22;60138;55.808;37.078;2022-10-22T03:28:52;6.20;74.76
70214;DHT22;60138;55.808;37.078;2022-10-22T03:31:18;6.21;74.71
70214;DHT22;60138;55.808;37.078;2022-10-22T03:33:44;6.21;74.68
70214;DHT22;60138;55.808;37.078;2022-10-22T03:36:10;6.20;74.72
70214;DHT22;60138;55.808;37.078;2022-10-22T03:38:37;6.16;74.81
70214;DHT22;60138;55.808;37.078;2022-10-22T03:41:03;6.15;74.86
70214;DHT22;60138;55.808;37.078;2022-10-22T03:43:29;6.16;74.89
70214;DHT22;60138;55.808;37.078;2022-10-22T03:45:55;6.16;74.86
70214;DHT22;60138;55.808;37.078;2022-10-22T03:48:21;6.19;74.87
70214;DHT22;60138;55.808;37.078;2022-10-22T03:50:46;6.21;74.87
70214;DHT22;60138;55.808;37.078;2022-10-22T03:53:12;6.23;74.85
70214;DHT22;60138;55.808;37.078;2022-10-22T03:55:39;6.24;74.75
70214;DHT22;60138;55.808;37.078;2022-10-22T03:58:05;6.23;74.77
70214;DHT22;60138;55.808;37.078;2022-10-22T04:00:31;6.21;74.77
70214;DHT22;60138;55.808;37.078;2022-10-22T04:02:58;6.17;74.74
70214;DHT22;60138;55.808;37.078;2022-10-22T04:05:23;6.15;74.83
70214;DHT22;60138;55.808;37.078;2022-10-22T04:07:49;6.19;74.83
70214;DHT22;60138;55.808;37.078;2022-10-22T04:10:15;6.17;74.80
70214;DHT22;60138;55.808;37.078;2022-10-22T04:12:41;6.21;74.83
70214;DHT22;60138;55.808;37.078;2022-10-22T04:15:07;6.25;74.74
70214;DHT22;60138;55.808;37.078;2022-10-22T04:17:34;6.26;74.70
70214;DHT22;60138;55.808;37.078;2022-10-22T04:20:01;6.28;74.72
70214;DHT22;60138;55.808;37.078;2022-10-22T04:22:28;6.31;74.76
70214;DHT22;60138;55.808;37.078;2022-10-22T04:24:54;6.35;74.76
70214;DHT22;60138;55.808;37.078;2022-10-22T04:27:20;6.37;74.78
70214;DHT22;60138;55.808;37.078;2022-10-22T04:29:45;6.39;74.68
70214;DHT22;60138;55.808;37.078;2022-10-22T04:32:11;6.40;74.67
70214;DHT22;60138;55.808;37.078;2022-10-22T04:34:37;6.41;74.65
70214;DHT22;60138;55.808;37.078;2022-10-22T04:37:02;6.40;74.64
70214;DHT22;60138;55.808;37.078;2022-10-22T04:39:28;6.40;74.71
70214;DHT22;60138;55.808;37.078;2022-10-22T04:41:54;6.43;74.64
70214;DHT22;60138;55.808;37.078;2022-10-22T04:44:19;6.45;74.69
70214;DHT22;60138;55.808;37.078;2022-10-22T04:46:45;6.44;74.68
70214;DHT22;60138;55.808;37.078;2022-10-22T04:49:10;6.50;74.68
70214;DHT22;60138;55.808;37.078;2022-10-22T04:51:36;6.51;74.63
70214;DHT22;60138;55.808;37.078;2022-10-22T04:54:02;6.55;74.71
70214;DHT22;60138;55.808;37.078;2022-10-22T04:56:29;6.55;74.60
70214;DHT22;60138;55.808;37.078;2022-10-22T04:59:01;6.60;74.64
70214;DHT22;60138;55.808;37.078;2022-10-22T05:01:32;6.60;74.53
70214;DHT22;60138;55.808;37.078;2022-10-22T05:04:00;6.63;74.43
70214;DHT22;60138;55.808;37.078;2022-10-22T05:06:27;6.65;74.33
70214;DHT22;60138;55.808;37.078;2022-10-22T05:08:55;6.65;74.40
70214;DHT22;60138;55.808;37.078;2022-10-22T05:11:24;6.70;74.42
70214;DHT22;60138;55.808;37.078;2022-10-22T05:13:50;6.75;74.43
70214;DHT22;60138;55.808;37.078;2022-10-22T05:16:15;6.81;74.38
70214;DHT22;60138;55.808;37.078;2022-10-22T05:18:42;6.85;74.28
70214;DHT22;60138;55.808;37.078;2022-10-22T05:21:14;6.89;74.11
70214;DHT22;60138;55.808;37.078;2022-10-22T05:23:40;6.87;74.06
70214;DHT22;60138;55.808;37.078;2022-10-22T05:26:08;6.90;74.07
70214;DHT22;60138;55.808;37.078;2022-10-22T05:28:34;6.94;74.02
70214;DHT22;60138;55.808;37.078;2022-10-22T05:31:01;6.97;73.99
70214;DHT22;60138;55.808;37.078;2022-10-22T05:33:28;6.98;73.92
70214;DHT22;60138;55.808;37.078;2022-10-22T05:35:54;6.99;73.83
70214;DHT22;60138;55.808;37.078;2022-10-22T05:38:19;7.03;73.86
70214;DHT22;60138;55.808;37.078;2022-10-22T05:40:45;7.05;73.83
70214;DHT22;60138;55.808;37.078;2022-10-22T05:43:11;7.05;73.68
70214;DHT22;60138;55.808;37.078;2022-10-22T05:45:38;7.08;73.74
70214;DHT22;60138;55.808;37.078;2022-10-22T05:48:04;7.12;73.75
70214;DHT22;60138;55.808;37.078;2022-10-22T05:50:31;7.17;73.73
70214;DHT22;60138;55.808;37.078;2022-10-22T05:52:56;7.22;73.57
70214;DHT22;60138;55.808;37.078;2022-10-22T05:55:22;7.24;73.51
70214;DHT22;60138;55.808;37.078;2022-10-22T05:57:48;7.25;73.54
70214;DHT22;60138;55.808;37.078;2022-10-22T06:00:14;7.26;73.51
70214;DHT22;60138;55.808;37.078;2022-10-22T06:02:39;7.30;73.48
70214;DHT22;60138;55.808;37.078;2022-10-22T06:05:05;7.31;73.44
70214;DHT22;60138;55.808;37.078;2022-10-22T06:07:31;7.33;73.33
70214;DHT22;60138;55.808;37.078;2022-10-22T06:09:56;7.35;73.19
70214;DHT22;60138;55.808;37.078;2022-10-22T06:12:23;7.35;73.12
70214;DHT22;60138;55.808;37.078;2022-10-22T06:14:48;7.39;73.17
70214;DHT22;60138;55.808;37.078;2022-10-22T06:17:14;7.39;73.06
70214;DHT22;60138;55.808;37.078;2022-10-22T06:19:39;7.38;73.06
70214;DHT22;60138;55.808;37.078;2022-10-22T06:22:06;7.41;73.07
70214;DHT22;60138;55.808;37.078;2022-10-22T06:24:31;7.41;72.79
70214;DHT22;60138;55.808;37.078;2022-10-22T06:26:57;7.35;72.90
70214;DHT22;60138;55.808;37.078;2022-10-22T06:29:23;7.40;72.96
70214;DHT22;60138;55.808;37.078;2022-10-22T06:31:49;7.38;72.86
70214;DHT22;60138;55.808;37.078;2022-10-22T06:34:15;7.32;72.80
70214;DHT22;60138;55.808;37.078;2022-10-22T06:36:43;7.32;72.96
70214;DHT22;60138;55.808;37.078;2022-10-22T06:39:13;7.38;73.08
70214;DHT22;60138;55.808;37.078;2022-10-22T06:41:40;7.43;72.89
70214;DHT22;60138;55.808;37.078;2022-10-22T06:44:05;7.42;72.75
70214;DHT22;60138;55.808;37.078;2022-10-22T06:46:31;7.39;72.58
70214;DHT22;60138;55.808;37.078;2022-10-22T06:48:59;7.32;72.57
70214;DHT22;60138;55.808;37.078;2022-10-22T06:51:26;7.31;72.90
70214;DHT22;60138;55.808;37.078;2022-10-22T06:53:53;7.40;73.03
70214;DHT22;60138;55.808;37.078;2022-10-22T06:56:21;7.46;72.91
70214;DHT22;60138;55.808;37.078;2022-10-22T06:58:48;7.54;72.93
70214;DHT22;60138;55.808;37.078;2022-10-22T07:01:16;7.60;72.82
70214;DHT22;60138;55.808;37.078;2022-10-22T07:03:42;7.62;72.62
70214;DHT22;60138;55.808;37.078;2022-10-22T07:06:10;7.65;72.68
70214;DHT22;60138;55.808;37.078;2022-10-22T07:08:37;7.69;72.61
70214;DHT22;60138;55.808;37.078;2022-10-22T07:11:07;7.61;72.34
70214;DHT22;60138;55.808;37.078;2022-10-22T07:13:33;7.58;72.51
70214;DHT22;60138;55.808;37.078;2022-10-22T07:15:59;7.55;72.43
70214;DHT22;60138;55.808;37.078;2022-10-22T07:18:24;7.49;72.56
70214;DHT22;60138;55.808;37.078;2022-10-22T07:20:50;7.52;72.58
70214;DHT22;60138;55.808;37.078;2022-10-22T07:23:16;7.57;72.70
70214;DHT22;60138;55.808;37.078;2022-10-22T07:25:42;7.72;72.70
70214;DHT22;60138;55.808;37.078;2022-10-22T07:28:07;7.87;72.63
70214;DHT22;60138;55.808;37.078;2022-10-22T07:30:35;7.98;72.42
70214;DHT22;60138;55.808;37.078;2022-10-22T07:33:01;8.02;72.22
70214;DHT22;60138;55.808;37.078;2022-10-22T07:35:26;8.07;72.13
70214;DHT22;60138;55.808;37.078;2022-10-22T07:37:52;8.15;72.07
70214;DHT22;60138;55.808;37.078;2022-10-22T07:40:18;8.19;71.79
70214;DHT22;60138;55.808;37.078;2022-10-22T07:42:43;8.21;71.59
70214;DHT22;60138;55.808;37.078;2022-10-22T07:45:09;8.27;71.20
70214;DHT22;60138;55.808;37.078;2022-10-22T07:47:35;8.30;71.63
70214;DHT22;60138;55.808;37.078;2022-10-22T07:50:00;8.33;71.52
70214;DHT22;60138;55.808;37.078;2022-10-22T07:52:26;8.35;71.49
70214;DHT22;60138;55.808;37.078;2022-10-22T07:54:52;8.37;71.30
70214;DHT22;60138;55.808;37.078;2022-10-22T07:57:17;8.36;71.22
70214;DHT22;60138;55.808;37.078;2022-10-22T07:59:43;8.43;71.07
70214;DHT22;60138;55.808;37.078;2022-10-22T08:02:11;8.41;70.82
70214;DHT22;60138;55.808;37.078;2022-10-22T08:04:37;8.43;71.10
70214;DHT22;60138;55.808;37.078;2022-10-22T08:07:02;8.47;71.03
70214;DHT22;60138;55.808;37.078;2022-10-22T08:09:28;8.55;71.03
70214;DHT22;60138;55.808;37.078;2022-10-22T08:11:54;8.63;71.26
70214;DHT22;60138;55.808;37.078;2022-10-22T08:14:19;8.76;71.21
70214;DHT22;60138;55.808;37.078;2022-10-22T08:16:45;8.82;71.15
70214;DHT22;60138;55.808;37.078;2022-10-22T08:19:11;8.94;71.05
70214;DHT22;60138;55.808;37.078;2022-10-22T08:21:37;9.00;70.56
70214;DHT22;60138;55.808;37.078;2022-10-22T08:24:02;9.01;70.36
70214;DHT22;60138;55.808;37.078;2022-10-22T08:26:28;8.94;70.36
70214;DHT22;60138;55.808;37.078;2022-10-22T08:28:54;9.00;70.61
70214;DHT22;60138;55.808;37.078;2022-10-22T08:31:19;8.96;70.26
70214;DHT22;60138;55.808;37.078;2022-10-22T08:33:45;8.89;70.28
70214;DHT22;60138;55.808;37.078;2022-10-22T08:36:10;8.80;70.64
70214;DHT22;60138;55.808;37.078;2022-10-22T08:38:36;8.85;70.74
70214;DHT22;60138;55.808;37.078;2022-10-22T08:41:17;8.88;70.42
70214;DHT22;60138;55.808;37.078;2022-10-22T08:43:50;8.88;70.47
70214;DHT22;60138;55.808;37.078;2022-10-22T08:46:36;8.89;70.18
70214;DHT22;60138;55.808;37.078;2022-10-22T08:49:06;8.87;70.48
70214;DHT22;60138;55.808;37.078;2022-10-22T08:51:35;8.90;70.29
70214;DHT22;60138;55.808;37.078;2022-10-22T08:54:21;8.95;70.34
70214;DHT22;60138;55.808;37.078;2022-10-22T09:05:19;8.90;70.44
70214;DHT22;60138;55.808;37.078;2022-10-22T09:07:47;8.91;70.41
70214;DHT22;60138;55.808;37.078;2022-10-22T09:10:13;8.92;70.26
70214;DHT22;60138;55.808;37.078;2022-10-22T09:12:39;8.89;70.07
70214;DHT22;60138;55.808;37.078;2022-10-22T09:15:05;8.81;69.98
70214;DHT22;60138;55.808;37.078;2022-10-22T09:17:44;8.79;70.23
70214;DHT22;60138;55.808;37.078;2022-10-22T09:21:15;8.79;70.11
70214;DHT22;60138;55.808;37.078;2022-10-22T09:23:58;8.74;69.80
70214;DHT22;60138;55.808;37.078;2022-10-22T09:26:27;8.73;70.33
70214;DHT22;60138;55.808;37.078;2022-10-22T09:28:53;8.72;70.38
70214;DHT22;60138;55.808;37.078;2022-10-22T09:31:18;8.67;69.97
70214;DHT22;60138;55.808;37.078;2022-10-22T09:33:46;8.64;70.25
70214;DHT22;60138;55.808;37.078;2022-10-22T09:36:16;8.66;70.57
70214;DHT22;60138;55.808;37.078;2022-10-22T09:38:52;8.67;70.22
70214;DHT22;60138;55.808;37.078;2022-10-22T09:41:19;8.62;70.43
70214;DHT22;60138;55.808;37.078;2022-10-22T09:43:48;8.72;70.57
70214;DHT22;60138;55.808;37.078;2022-10-22T09:46:16;8.82;70.62
70214;DHT22;60138;55.808;37.078;2022-10-22T09:48:47;8.93;70.44
70214;DHT22;60138;55.808;37.078;2022-10-22T09:51:22;9.02;70.38
70214;DHT22;60138;55.808;37.078;2022-10-22T09:54:00;9.15;70.33
70214;DHT22;60138;55.808;37.078;2022-10-22T09:58:55;9.27;70.08
70214;DHT22;60138;55.808;37.078;2022-10-22T10:01:28;9.38;69.91
70214;DHT22;60138;55.808;37.078;2022-10-22T10:04:01;9.38;69.20
70214;DHT22;60138;55.808;37.078;2022-10-22T10:06:30;9.39;69.49
70214;DHT22;60138;55.808;37.078;2022-10-22T10:08:57;9.41;69.63
70214;DHT22;60138;55.808;37.078;2022-10-22T10:11:31;9.41;69.36
70214;DHT22;60138;55.808;37.078;2022-10-22T10:14:10;9.36;69.38
70214;DHT22;60138;55.808;37.078;2022-10-22T10:16:47;9.32;69.28
70214;DHT22;60138;55.808;37.078;2022-10-22T10:22:40;9.21;69.26
70214;DHT22;60138;55.808;37.078;2022-10-22T10:31:19;9.20;69.17
70214;DHT22;60138;55.808;37.078;2022-10-22T10:37:19;9.24;69.18
70214;DHT22;60138;55.808;37.078;2022-10-22T10:43:01;9.07;68.69
70214;DHT22;60138;55.808;37.078;2022-10-22T10:45:40;9.03;68.87
70214;DHT22;60138;55.808;37.078;2022-10-22T10:48:37;9.09;69.16
70214;DHT22;60138;55.808;37.078;2022-10-22T10:57:24;9.37;68.94
70214;DHT22;60138;55.808;37.078;2022-10-22T11:08:16;9.47;68.61
70214;DHT22;60138;55.808;37.078;2022-10-22T11:10:50;9.44;68.53
70214;DHT22;60138;55.808;37.078;2022-10-22T11:22:18;9.31;68.29
70214;DHT22;60138;55.808;37.078;2022-10-22T11:24:55;9.27;68.38
70214;DHT22;60138;55.808;37.078;2022-10-22T11:27:36;9.24;68.55
70214;DHT22;60138;55.808;37.078;2022-10-22T11:30:12;9.26;68.58
70214;DHT22;60138;55.808;37.078;2022-10-22T11:32:40;9.22;68.49
70214;DHT22;60138;55.808;37.078;2022-10-22T11:35:13;9.23;68.58
70214;DHT22;60138;55.808;37.078;2022-10-22T11:37:41;9.24;68.58
70214;DHT22;60138;55.808;37.078;2022-10-22T11:40:21;9.25;68.74
70214;DHT22;60138;55.808;37.078;2022-10-22T11:42:53;9.27;68.78
70214;DHT22;60138;55.808;37.078;2022-10-22T11:50:50;9.26;68.69
70214;DHT22;60138;55.808;37.078;2022-10-22T11:55:45;9.26;68.53
70214;DHT22;60138;55.808;37.078;2022-10-22T12:00:55;9.27;68.65
70214;DHT22;60138;55.808;37.078;2022-10-22T12:08:27;9.40;68.65
70214;DHT22;60138;55.808;37.078;2022-10-22T12:11:12;9.42;68.52
70214;DHT22;60138;55.808;37.078;2022-10-22T12:16:41;9.33;68.51
70214;DHT22;60138;55.808;37.078;2022-10-22T12:19:35;9.32;68.52
70214;DHT22;60138;55.808;37.078;2022-10-22T12:22:33;9.33;68.56
70214;DHT22;60138;55.808;37.078;2022-10-22T12:25:04;9.31;68.45
70214;DHT22;60138;55.808;37.078;2022-10-22T12:27:39;9.29;68.42
70214;DHT22;60138;55.808;37.078;2022-10-22T12:30:23;9.29;68.47
70214;DHT22;60138;55.808;37.078;2022-10-22T12:32:58;9.29;68.57
70214;DHT22;60138;55.808;37.078;2022-10-22T12:35:26;9.26;68.55
70214;DHT22;60138;55.808;37.078;2022-10-22T12:38:16;9.26;68.63
70214;DHT22;60138;55.808;37.078;2022-10-22T12:40:43;9.27;68.66
70214;DHT22;60138;55.808;37.078;2022-10-22T12:43:14;9.27;68.60
70214;DHT22;60138;55.808;37.078;2022-10-22T12:45:42;9.23;68.66
70214;DHT22;60138;55.808;37.078;2022-10-22T12:48:18;9.22;68.72
70214;DHT22;60138;55.808;37.078;2022-10-22T12:50:49;9.22;68.81
70214;DHT22;60138;55.808;37.078;2022-10-22T12:53:18;9.22;68.75
70214;DHT22;60138;55.808;37.078;2022-10-22T12:55:46;9.18;68.78
70214;DHT22;60138;55.808;37.078;2022-10-22T12:58:20;9.15;68.81
70214;DHT22;60138;55.808;37.078;2022-10-22T13:00:47;9.11;68.91
70214;DHT22;60138;55.808;37.078;2022-10-22T13:03:29;9.07;68.96
70214;DHT22;60138;55.808;37.078;2022-10-22T13:06:06;9.03;68.95
70214;DHT22;60138;55.808;37.078;2022-10-22T13:08:37;9.00;68.99
70214;DHT22;60138;55.808;37.078;2022-10-22T13:11:07;8.94;69.01
70214;DHT22;60138;55.808;37.078;2022-10-22T13:16:23;8.87;68.92
70214;DHT22;60138;55.808;37.078;2022-10-22T13:18:50;8.81;68.93
70214;DHT22;60138;55.808;37.078;2022-10-22T13:21:32;8.76;69.09
70214;DHT22;60138;55.808;37.078;2022-10-22T13:24:17;8.70;69.18
70214;DHT22;60138;55.808;37.078;2022-10-22T13:26:47;8.68;69.30
70214;DHT22;60138;55.808;37.078;2022-10-22T13:29:16;8.61;69.36
70214;DHT22;60138;55.808;37.078;2022-10-22T13:31:48;8.59;69.45
70214;DHT22;60138;55.808;37.078;2022-10-22T13:34:23;8.57;69.57
70214;DHT22;60138;55.808;37.078;2022-10-22T13:36:50;8.56;69.67
70214;DHT22;60138;55.808;37.078;2022-10-22T13:41:43;8.50;69.94
70214;DHT22;60138;55.808;37.078;2022-10-22T13:44:08;8.47;69.97
70214;DHT22;60138;55.808;37.078;2022-10-22T13:46:35;8.43;69.98
70214;DHT22;60138;55.808;37.078;2022-10-22T13:49:01;8.38;70.07
70214;DHT22;60138;55.808;37.078;2022-10-22T13:51:31;8.32;70.10
70214;DHT22;60138;55.808;37.078;2022-10-22T13:53:57;8.30;70.20
70214;DHT22;60138;55.808;37.078;2022-10-22T13:56:23;8.24;70.23
70214;DHT22;60138;55.808;37.078;2022-10-22T13:58:49;8.22;70.33
70214;DHT22;60138;55.808;37.078;2022-10-22T14:01:23;8.17;70.41
70214;DHT22;60138;55.808;37.078;2022-10-22T14:03:52;8.15;70.55
70214;DHT22;60138;55.808;37.078;2022-10-22T14:06:20;8.11;70.58
70214;DHT22;60138;55.808;37.078;2022-10-22T14:08:52;8.08;70.68
70214;DHT22;60138;55.808;37.078;2022-10-22T14:11:18;8.07;70.83
70214;DHT22;60138;55.808;37.078;2022-10-22T14:13:44;8.06;70.92
70214;DHT22;60138;55.808;37.078;2022-10-22T14:16:18;8.04;70.95
70214;DHT22;60138;55.808;37.078;2022-10-22T14:18:44;8.02;71.02
70214;DHT22;60138;55.808;37.078;2022-10-22T14:21:12;7.99;71.06
70214;DHT22;60138;55.808;37.078;2022-10-22T14:23:39;7.97;71.16
70214;DHT22;60138;55.808;37.078;2022-10-22T14:26:05;7.97;71.23
70214;DHT22;60138;55.808;37.078;2022-10-22T14:28:31;7.92;71.38
70214;DHT22;60138;55.808;37.078;2022-10-22T14:30:56;7.87;71.43
70214;DHT22;60138;55.808;37.078;2022-10-22T14:33:26;7.84;71.55
70214;DHT22;60138;55.808;37.078;2022-10-22T14:35:52;7.82;71.61
70214;DHT22;60138;55.808;37.078;2022-10-22T14:38:18;7.79;71.70
70214;DHT22;60138;55.808;37.078;2022-10-22T14:40:44;7.76;71.74
70214;DHT22;60138;55.808;37.078;2022-10-22T14:45:49;7.71;71.93
70214;DHT22;60138;55.808;37.078;2022-10-22T14:48:14;7.68;71.95
70214;DHT22;60138;55.808;37.078;2022-10-22T14:50:42;7.64;71.99
70214;DHT22;60138;55.808;37.078;2022-10-22T14:53:07;7.64;72.03
70214;DHT22;60138;55.808;37.078;2022-10-22T14:55:33;7.61;72.08
70214;DHT22;60138;55.808;37.078;2022-10-22T14:57:59;7.61;72.09
70214;DHT22;60138;55.808;37.078;2022-10-22T15:00:25;7.59;72.15
70214;DHT22;60138;55.808;37.078;2022-10-22T15:02:51;7.57;72.19
70214;DHT22;60138;55.808;37.078;2022-10-22T15:05:16;7.56;72.21
70214;DHT22;60138;55.808;37.078;2022-10-22T15:07:44;7.54;72.29
70214;DHT22;60138;55.808;37.078;2022-10-22T15:10:09;7.52;72.32
70214;DHT22;60138;55.808;37.078;2022-10-22T15:12:35;7.50;72.39
70214;DHT22;60138;55.808;37.078;2022-10-22T15:15:01;7.48;72.44
70214;DHT22;60138;55.808;37.078;2022-10-22T15:17:29;7.46;72.48
70214;DHT22;60138;55.808;37.078;2022-10-22T15:19:54;7.44;72.41
70214;DHT22;60138;55.808;37.078;2022-10-22T15:22:20;7.42;72.50
70214;DHT22;60138;55.808;37.078;2022-10-22T15:24:45;7.41;72.56
70214;DHT22;60138;55.808;37.078;2022-10-22T15:27:11;7.40;72.60
70214;DHT22;60138;55.808;37.078;2022-10-22T15:29:37;7.42;72.58
70214;DHT22;60138;55.808;37.078;2022-10-22T15:32:02;7.41;72.58
70214;DHT22;60138;55.808;37.078;2022-10-22T15:34:33;7.40;72.64
70214;DHT22;60138;55.808;37.078;2022-10-22T15:37:01;7.38;72.63
70214;DHT22;60138;55.808;37.078;2022-10-22T15:39:28;7.41;72.65
70214;DHT22;60138;55.808;37.078;2022-10-22T15:41:54;7.39;72.70
70214;DHT22;60138;55.808;37.078;2022-10-22T15:44:22;7.39;72.67
70214;DHT22;60138;55.808;37.078;2022-10-22T15:46:49;7.41;72.71
70214;DHT22;60138;55.808;37.078;2022-10-22T15:49:15;7.39;72.71
70214;DHT22;60138;55.808;37.078;2022-10-22T15:51:40;7.40;72.74
70214;DHT22;60138;55.808;37.078;2022-10-22T15:54:09;7.39;72.72
70214;DHT22;60138;55.808;37.078;2022-10-22T15:56:37;7.39;72.71
70214;DHT22;60138;55.808;37.078;2022-10-22T15:59:02;7.39;72.80
70214;DHT22;60138;55.808;37.078;2022-10-22T16:01:28;7.38;72.76
70214;DHT22;60138;55.808;37.078;2022-10-22T16:03:54;7.38;72.79
70214;DHT22;60138;55.808;37.078;2022-10-22T16:06:20;7.38;72.76
70214;DHT22;60138;55.808;37.078;2022-10-22T16:08:46;7.38;72.79
70214;DHT22;60138;55.808;37.078;2022-10-22T16:11:11;7.35;72.77
70214;DHT22;60138;55.808;37.078;2022-10-22T16:13:37;7.35;72.80
70214;DHT22;60138;55.808;37.078;2022-10-22T16:16:06;7.34;72.86
70214;DHT22;60138;55.808;37.078;2022-10-22T16:18:31;7.35;72.89
70214;DHT22;60138;55.808;37.078;2022-10-22T16:20:57;7.35;72.86
70214;DHT22;60138;55.808;37.078;2022-10-22T16:23:23;7.33;72.85
70214;DHT22;60138;55.808;37.078;2022-10-22T16:25:48;7.32;72.86
70214;DHT22;60138;55.808;37.078;2022-10-22T16:28:14;7.32;72.92
70214;DHT22;60138;55.808;37.078;2022-10-22T16:30:40;7.32;72.93
70214;DHT22;60138;55.808;37.078;2022-10-22T16:33:07;7.30;72.98
70214;DHT22;60138;55.808;37.078;2022-10-22T16:35:33;7.28;72.96
70214;DHT22;60138;55.808;37.078;2022-10-22T16:37:58;7.27;72.98
70214;DHT22;60138;55.808;37.078;2022-10-22T16:40:24;7.25;73.03
70214;DHT22;60138;55.808;37.078;2022-10-22T16:42:50;7.24;73.11
70214;DHT22;60138;55.808;37.078;2022-10-22T16:45:16;7.22;73.19
70214;DHT22;60138;55.808;37.078;2022-10-22T16:47:42;7.22;73.20
70214;DHT22;60138;55.808;37.078;2022-10-22T16:50:08;7.20;73.26
70214;DHT22;60138;55.808;37.078;2022-10-22T16:52:35;7.19;73.27
70214;DHT22;60138;55.808;37.078;2022-10-22T16:55:00;7.17;73.30
70214;DHT22;60138;55.808;37.078;2022-10-22T16:57:26;7.17;73.32
70214;DHT22;60138;55.808;37.078;2022-10-22T16:59:52;7.15;73.36
70214;DHT22;60138;55.808;37.078;2022-10-22T17:02:18;7.14;73.41
70214;DHT22;60138;55.808;37.078;2022-10-22T17:04:43;7.13;73.48
70214;DHT22;60138;55.808;37.078;2022-10-22T17:07:09;7.11;73.54
70214;DHT22;60138;55.808;37.078;2022-10-22T17:09:35;7.10;73.49
70214;DHT22;60138;55.808;37.078;2022-10-22T17:12:00;7.10;73.50
70214;DHT22;60138;55.808;37.078;2022-10-22T17:14:26;7.09;73.53
70214;DHT22;60138;55.808;37.078;2022-10-22T17:16:51;7.08;73.58
70214;DHT22;60138;55.808;37.078;2022-10-22T17:19:17;7.09;73.61
70214;DHT22;60138;55.808;37.078;2022-10-22T17:21:43;7.10;73.55
70214;DHT22;60138;55.808;37.078;2022-10-22T17:24:08;7.08;73.58
70214;DHT22;60138;55.808;37.078;2022-10-22T17:26:34;7.09;73.57